createdAt,value
2023-02-23T00:00:58.395Z,9
2023-02-23T00:06:04.313Z,9
2023-02-23T00:11:12.246Z,9
2023-02-23T00:16:18.465Z,9
2023-02-23T00:21:26.259Z,9
2023-02-23T00:26:32.342Z,9
2023-02-23T00:31:38.892Z,8.9
2023-02-23T00:36:44.438Z,8.9
2023-02-23T00:41:52.444Z,8.9
2023-02-23T00:47:00.356Z,8.9
2023-02-23T00:52:08.276Z,8.9
2023-02-23T00:57:16.214Z,9
2023-02-23T01:02:24.224Z,9
2023-02-23T01:07:32.111Z,8.9
2023-02-23T01:12:40.041Z,8.9
2023-02-23T01:17:48.057Z,8.9
2023-02-23T01:22:55.937Z,8.9
2023-02-23T01:28:03.890Z,8.8
2023-02-23T01:33:11.869Z,8.9
2023-02-23T01:38:19.780Z,8.9
2023-02-23T01:43:27.726Z,8.9
2023-02-23T01:48:35.704Z,8.9
2023-02-23T01:53:43.704Z,8.9
2023-02-23T01:58:51.572Z,8.9
2023-02-23T02:03:59.549Z,8.8
2023-02-23T02:09:07.477Z,8.8
2023-02-23T02:14:15.419Z,8.9
2023-02-23T02:19:23.389Z,8.9
2023-02-23T02:24:31.320Z,8.8
2023-02-23T02:29:39.267Z,8.8
2023-02-23T02:34:47.240Z,8.8
2023-02-23T02:39:55.162Z,8.8
2023-02-23T02:45:03.120Z,8.8
2023-02-23T02:50:09.224Z,8.8
2023-02-23T02:55:17.137Z,8.8
2023-02-23T03:00:23.151Z,8.8
2023-02-23T03:05:31.117Z,8.8
2023-02-23T03:10:37.161Z,8.8
2023-02-23T03:15:43.318Z,8.8
2023-02-23T03:20:49.425Z,8.8
2023-02-23T03:25:55.334Z,8.8
2023-02-23T03:31:01.437Z,8.8
2023-02-23T03:36:07.485Z,8.8
2023-02-23T03:41:13.548Z,8.8
2023-02-23T03:46:21.454Z,8.7
2023-02-23T03:51:27.549Z,8.7
2023-02-23T03:56:35.454Z,8.7
2023-02-23T04:01:41.566Z,8.7
2023-02-23T04:06:49.467Z,8.7
2023-02-23T04:11:55.518Z,8.7
2023-02-23T04:17:01.554Z,8.8
2023-02-23T04:22:07.623Z,8.8
2023-02-23T04:27:13.701Z,8.8
2023-02-23T04:32:21.777Z,8.8
2023-02-23T04:37:29.621Z,8.8
2023-02-23T04:42:37.546Z,8.7
2023-02-23T04:47:45.474Z,8.7
2023-02-23T04:52:53.448Z,8.7
2023-02-23T04:58:01.345Z,8.7
2023-02-23T05:03:09.293Z,8.7
2023-02-23T05:08:17.274Z,8.7
2023-02-23T05:13:25.192Z,8.8
2023-02-23T05:18:33.162Z,8.8
2023-02-23T05:23:41.101Z,9
2023-02-23T05:28:49.096Z,9.1
2023-02-23T05:33:57.073Z,9.2
2023-02-23T05:39:05.075Z,9.3
2023-02-23T05:44:12.877Z,9.2
2023-02-23T05:49:20.825Z,9.4
2023-02-23T05:54:28.812Z,9.3
2023-02-23T06:04:44.665Z,9.5
2023-02-23T06:09:52.730Z,9.6
2023-02-23T06:15:00.589Z,9.6
2023-02-23T06:20:08.517Z,9.7
2023-02-23T06:25:16.662Z,9.7
2023-02-23T06:30:24.559Z,9.7
2023-02-23T06:35:32.357Z,9.7
2023-02-23T06:40:40.359Z,9.7
2023-02-23T06:45:48.245Z,9.7
2023-02-23T06:50:56.229Z,9.7
2023-02-23T06:56:04.162Z,9.8
2023-02-23T07:01:12.118Z,9.8
2023-02-23T07:06:20.042Z,9.8
2023-02-23T07:11:28.032Z,9.8
2023-02-23T07:16:34.077Z,9.9
2023-02-23T07:21:40.106Z,9.8
2023-02-23T07:26:46.202Z,9.7
2023-02-23T07:31:54.166Z,9.8
2023-02-23T07:37:00.160Z,9.9
2023-02-23T07:42:06.259Z,9.8
2023-02-23T07:47:14.171Z,9.8
2023-02-23T07:52:22.109Z,9.9
2023-02-23T07:57:28.190Z,9.9
2023-02-23T08:02:34.232Z,9.9
2023-02-23T08:07:40.292Z,9.7
2023-02-23T08:12:46.495Z,9.8
2023-02-23T08:17:52.413Z,9.8
2023-02-23T08:22:58.470Z,9.8
2023-02-23T08:28:04.879Z,9.8
2023-02-23T08:33:12.453Z,9.9
2023-02-23T08:38:18.518Z,9.9
2023-02-23T08:43:26.579Z,9.9
2023-02-23T08:48:34.399Z,10
2023-02-23T08:53:42.377Z,9.9
2023-02-23T08:58:50.401Z,9.9
2023-02-23T09:03:58.232Z,9.9
2023-02-23T09:09:06.180Z,9.9
2023-02-23T09:14:14.155Z,9.9
2023-02-23T09:19:22.105Z,9.9
2023-02-23T09:24:30.045Z,9.9
2023-02-23T09:29:38.003Z,9.9
2023-02-23T09:34:45.919Z,9.9
2023-02-23T09:39:53.892Z,9.9
2023-02-23T09:45:01.843Z,9.9
2023-02-23T09:50:09.772Z,9.9
2023-02-23T09:55:17.721Z,9.9
2023-02-23T10:00:25.738Z,9.9
2023-02-23T10:05:33.644Z,10.1
2023-02-23T10:10:41.581Z,10.1
2023-02-23T10:15:49.590Z,10.2
2023-02-23T10:20:57.476Z,10.2
2023-02-23T10:26:05.402Z,10.2
2023-02-23T10:31:13.489Z,10.3
2023-02-23T10:36:21.307Z,10.3
2023-02-23T10:41:29.546Z,10.3
2023-02-23T10:46:37.305Z,10.3
2023-02-23T10:51:45.141Z,10.4
2023-02-23T10:56:53.101Z,10.2
2023-02-23T11:02:02.853Z,10.2
2023-02-23T11:07:08.979Z,10.2
2023-02-23T11:12:16.921Z,10.4
2023-02-23T11:22:32.829Z,10.2
2023-02-23T11:27:38.916Z,10.4
2023-02-23T11:32:45.084Z,10.2
2023-02-23T11:37:51.005Z,10.2
2023-02-23T11:42:57.097Z,10.3
2023-02-23T11:48:03.141Z,10.3
2023-02-23T11:53:09.281Z,10.3
2023-02-23T11:58:15.227Z,10.3
2023-02-23T12:03:21.357Z,10.3
2023-02-23T12:08:27.384Z,10.3
2023-02-23T12:13:33.428Z,10.3
2023-02-23T12:18:39.496Z,10.3
2023-02-23T12:23:48.314Z,10.3
2023-02-23T12:28:51.603Z,10.3
2023-02-23T12:33:59.542Z,10.3
2023-02-23T12:39:05.628Z,10.3
2023-02-23T12:44:11.665Z,10.4
2023-02-23T12:49:19.605Z,10.4
2023-02-23T12:54:27.616Z,10.4
2023-02-23T12:59:35.510Z,10.3
2023-02-23T13:04:43.440Z,10.3
2023-02-23T13:09:51.429Z,10.3
2023-02-23T13:14:59.343Z,10.1
2023-02-23T13:20:07.279Z,10.1
2023-02-23T13:25:15.266Z,10.1
2023-02-23T13:30:23.182Z,10.1
2023-02-23T13:35:31.117Z,10.1
2023-02-23T13:40:39.108Z,10.1
2023-02-23T13:45:47.097Z,10.1
2023-02-23T13:50:54.952Z,10.1
2023-02-23T13:56:04.253Z,10.1
2023-02-23T14:01:10.871Z,10.2
2023-02-23T14:06:18.784Z,10.2
2023-02-23T14:11:26.791Z,10.3
2023-02-23T14:16:34.817Z,10.2
2023-02-23T14:21:42.661Z,10.2
2023-02-23T14:26:50.626Z,10.2
2023-02-23T14:31:58.668Z,10.2
2023-02-23T14:37:06.504Z,10.2
2023-02-23T14:42:14.484Z,10.2
2023-02-23T14:47:22.378Z,10.2
2023-02-23T14:52:30.352Z,10.2
2023-02-23T14:57:38.331Z,10.2
2023-02-23T15:02:54.187Z,10.2
2023-02-23T15:07:54.184Z,10.2
2023-02-23T15:13:02.180Z,10.2
2023-02-23T15:18:10.250Z,10.2
2023-02-23T15:23:18.065Z,10.1
2023-02-23T15:28:26.028Z,10.1
2023-02-23T15:33:33.914Z,10.1
2023-02-23T15:38:44.325Z,10.1
2023-02-23T15:43:47.964Z,10.1
2023-02-23T15:48:55.854Z,10.1
2023-02-23T15:54:01.909Z,10.1
2023-02-23T15:59:08.102Z,10
2023-02-23T16:04:14.122Z,10
2023-02-23T16:09:22.339Z,10
2023-02-23T16:14:28.071Z,10
2023-02-23T16:19:34.081Z,10
2023-02-23T16:24:42.045Z,9.8
2023-02-23T16:29:50.022Z,9.9
2023-02-23T16:34:56.049Z,9.8
2023-02-23T16:40:02.100Z,9.8
2023-02-23T16:45:10.050Z,9.7
2023-02-23T16:55:26.346Z,9.8
2023-02-23T17:00:33.943Z,9.7
2023-02-23T17:05:41.844Z,9.7
2023-02-23T17:10:49.785Z,9.7
2023-02-23T17:15:57.795Z,9.7
2023-02-23T17:21:05.673Z,9.6
2023-02-23T17:26:13.624Z,9.6
2023-02-23T17:31:24.699Z,9.6
2023-02-23T17:36:29.523Z,9.6
2023-02-23T17:41:37.465Z,9.6
2023-02-23T17:46:45.434Z,9.5
2023-02-23T17:51:53.345Z,9.5
2023-02-23T17:57:01.298Z,9.5
2023-02-23T18:02:09.302Z,9.4
2023-02-23T18:07:17.235Z,9.4
2023-02-23T18:12:25.135Z,9.5
2023-02-23T18:17:33.104Z,9.5
2023-02-23T18:22:41.049Z,9.5
2023-02-23T18:27:48.981Z,9.5
2023-02-23T18:32:57.074Z,9.5
2023-02-23T18:38:04.931Z,9.4
2023-02-23T18:43:12.816Z,9.4
2023-02-23T18:48:20.823Z,9.4
2023-02-23T18:53:28.717Z,9.4
2023-02-23T18:58:36.682Z,9.3
2023-02-23T19:03:44.634Z,9.3
2023-02-23T19:08:52.561Z,9.5
2023-02-23T19:14:00.499Z,9.5
2023-02-23T19:19:08.452Z,9.4
2023-02-23T19:24:16.429Z,9.4
2023-02-23T19:29:24.343Z,9.4
2023-02-23T19:34:32.314Z,9.4
2023-02-23T19:39:40.243Z,9.4
2023-02-23T19:44:48.206Z,9.4
2023-02-23T19:49:56.175Z,9.4
2023-02-23T19:55:04.102Z,9.4
2023-02-23T20:00:10.149Z,9.3
2023-02-23T20:05:18.210Z,9.3
2023-02-23T20:10:24.143Z,9.3
2023-02-23T20:15:32.086Z,9.4
2023-02-23T20:20:38.154Z,9.4
2023-02-23T20:25:44.203Z,9.2
2023-02-23T20:30:50.333Z,9.2
2023-02-23T20:35:56.336Z,9.2
2023-02-23T20:41:04.258Z,9.2
2023-02-23T20:46:12.224Z,9.2
2023-02-23T20:51:20.554Z,9.2
2023-02-23T20:56:28.155Z,9.2
2023-02-23T21:01:36.091Z,9.1
2023-02-23T21:06:44.018Z,9.1
2023-02-23T21:11:51.939Z,9.1
2023-02-23T21:16:59.888Z,9.1
2023-02-23T21:22:07.880Z,9.1
2023-02-23T21:27:15.802Z,9.1
2023-02-23T21:32:23.894Z,9.1
2023-02-23T21:37:31.706Z,9.1
2023-02-23T21:42:39.644Z,9.1
2023-02-23T21:47:47.647Z,9.1
2023-02-23T21:52:55.573Z,9.1
2023-02-23T21:58:03.488Z,9.1
2023-02-23T22:03:11.508Z,9.1
2023-02-23T22:08:19.414Z,9.1
2023-02-23T22:13:27.327Z,9
2023-02-23T22:18:35.322Z,9
2023-02-23T22:23:43.242Z,9
2023-02-23T22:28:51.168Z,9
2023-02-23T22:33:59.106Z,9
2023-02-23T22:39:07.115Z,9
2023-02-23T22:44:15.029Z,9
2023-02-23T22:49:22.950Z,9
2023-02-23T22:54:30.907Z,9
2023-02-23T22:59:38.847Z,9
2023-02-23T23:04:46.926Z,9
2023-02-23T23:09:54.760Z,9
2023-02-23T23:15:02.780Z,9
2023-02-23T23:20:10.678Z,9
2023-02-23T23:25:18.609Z,8.9
2023-02-23T23:30:26.516Z,8.9
2023-02-23T23:35:34.472Z,8.9
2023-02-23T23:40:42.503Z,8.9
2023-02-23T23:45:50.390Z,8.9
2023-02-23T23:50:58.417Z,8.9
2023-02-23T23:56:06.309Z,8.9
